Clay, New York
Current Conditions -  °F | °C
As of 8:54 AM on Monday 20 Oct 2014 (Local Time) from KSYR Reporting Station
Broken Clouds Broken Clouds  
Wind Chill: 42°   Ceiling: 10000
Heat Index: 45°   Visibility: 10mi
Dew Point: 35°   Wind: 5mph
Humidity: 68%   Direction: 170°S
Pressure: 29.98"   Gusts: NA
Location:  43.19°N, 76.17°W
Report Text: KSYR 201254Z 17004KT 10SM SCT036 BKN100 BKN200 07/02 A2998 RMK SLP157 T00700015
Loading
Personal Weather Stations






























Interactive Weather Map
Tropical Storm Tracking
New forecast layout! Learn more

10-Day Weather Forecast

Advertisements
Track Severe Weather on mobile